Harriot Lane — NHNC — position and weather

sailwx.info

Track history (hours):
 
Tides and Currents Weather Stations Pressure Air Temp Water Temp Dewpoint Dewpoint Depression Visibility Wind Speed Wind Dir Waves Ship Positions

Harriot Lane

Last reported at 2017-Sep-22 02:00 UTC. Time now 2017-Oct-17 02:15 UTC.
Position N 42°30' W 070°39'.
Warning: this ship's position is 25 days out of date.

Date/timePositionNaut miles runAvg speedWind from/ knotsBaromVisibWave heightAir tempDewpointWater temp
2017-Sep-22 02:00N 42°30' W 070°39'612.3
2017-Sep-22 01:30N 42°34' W 070°33'714.2
2017-Sep-22 01:00N 42°39' W 070°26'613.0
2017-Sep-22 00:30N 42°46' W 070°24'713.7
2017-Sep-22 00:00N 42°53' W 070°24'713.9
2017-Sep-21 23:30N 42°60' W 070°23'713.3
2017-Sep-21 23:00N 43°06' W 070°20'713.7
2017-Sep-21 22:30N 43°12' W 070°16'913.7
2017-Sep-21 21:49N 43°21' W 070°11'513.9
2017-Sep-21 21:28N 43°25' W 070°09'  
2017-Sep-19 01:30N 42°36' W 070°27'3 6.0
2017-Sep-19 01:00N 42°34' W 070°30'4 7.1
2017-Sep-19 00:30N 42°33' W 070°35'4 8.4
2017-Sep-19 00:00N 42°31' W 070°39'4 8.3
2017-Sep-18 23:30N 42°27' W 070°43'510.2
2017-Sep-18 23:00N 42°23' W 070°47'510.0
2017-Sep-18 22:31N 42°23' W 070°54'4 7.8
2017-Sep-18 22:01N 42°20' W 070°58'0 0.2
2017-Sep-18 21:28N 42°20' W 070°58'0 0.0
2017-Sep-18 20:58N 42°20' W 070°58'0 0.0
2017-Sep-18 20:28N 42°20' W 070°58'0 0.0
2017-Sep-18 19:59N 42°20' W 070°58'0 0.0
2017-Sep-18 19:29N 42°20' W 070°58'0 0.0
2017-Sep-18 18:59N 42°20' W 070°58'0 0.0
2017-Sep-18 18:29N 42°20' W 070°58'0 0.0
2017-Sep-18 17:59N 42°20' W 070°58'0 0.0
2017-Sep-18 17:29N 42°20' W 070°58'0 0.0
2017-Sep-18 16:59N 42°20' W 070°58'0 0.0
2017-Sep-18 16:30N 42°20' W 070°58'0 0.0
2017-Sep-18 16:00N 42°20' W 070°58'0 0.0
2017-Sep-18 15:30N 42°20' W 070°58'0 0.1
2017-Sep-18 15:00N 42°20' W 070°58'0 0.0
2017-Sep-18 14:30N 42°20' W 070°58'0 0.0
2017-Sep-18 14:00N 42°20' W 070°58'1 1.3
2017-Sep-18 13:30N 42°20' W 070°57'510.0
2017-Sep-18 13:00N 42°23' W 070°51'3 6.5
2017-Sep-18 12:30N 42°23' W 070°47'3 6.5
2017-Sep-18 12:00N 42°23' W 070°43'3 6.6
2017-Sep-18 11:30N 42°22' W 070°38'3 6.5
2017-Sep-18 11:00N 42°22' W 070°34'3 5.9
2017-Sep-18 10:30N 42°22' W 070°30'3 5.4
2017-Sep-18 10:00N 42°22' W 070°26'4 7.6
2017-Sep-18 09:30N 42°21' W 070°21'4 8.4
2017-Sep-18 09:00N 42°21' W 070°15'4 0.1
2017-Sep-16 18:36N 42°18' W 070°13'1 8.9
2017-Sep-16 18:31N 42°18' W 070°14'5 9.0
2017-Sep-16 18:00N 42°18' W 070°20'5 9.3
2017-Sep-16 17:30N 42°19' W 070°26'4 8.9
2017-Sep-16 17:00N 42°19' W 070°32'5 9.1
2017-Sep-16 16:30N 42°20' W 070°38'510.3
2017-Sep-16 16:00N 42°21' W 070°45'3 6.6
2017-Sep-16 15:30N 42°23' W 070°48'2 3.1
2017-Sep-16 15:00N 42°23' W 070°46'3 6.8
2017-Sep-16 14:31N 42°23' W 070°42'4 7.0
2017-Sep-16 14:00N 42°22' W 070°37'4 8.6
2017-Sep-16 13:30N 42°22' W 070°31'3 5.3
2017-Sep-16 13:00N 42°23' W 070°28'2 3.6
2017-Sep-16 12:30N 42°23' W 070°30'1 1.5
2017-Sep-16 12:01N 42°23' W 070°31'2 4.2
2017-Sep-16 11:30N 42°22' W 070°28'1 2.9
2017-Sep-16 11:00N 42°23' W 070°26'2 3.5
2017-Sep-16 10:30N 42°23' W 070°29'1 1.6
2017-Sep-16 10:00N 42°23' W 070°30'3 6.5
2017-Sep-16 09:30N 42°22' W 070°26'  
2017-Sep-13 21:59N 43°29' W 070°05'510.3
2017-Sep-13 21:30N 43°34' W 070°09'510.8
2017-Sep-13 21:00N 43°38' W 070°13'2 3.6
2017-Sep-13 20:28N 43°39' W 070°15'0 0.0
2017-Sep-13 20:01N 43°39' W 070°15'0 0.0
2017-Sep-13 19:30N 43°39' W 070°15'0 0.0
2017-Sep-13 18:54N 43°39' W 070°15'0 0.0
2017-Sep-13 18:30N 43°39' W 070°15'0 0.0
2017-Sep-13 14:59N 43°39' W 070°15'0 0.0
2017-Sep-13 14:29N 43°39' W 070°15'0 0.0
2017-Sep-13 13:59N 43°39' W 070°15'0 0.0
2017-Sep-13 13:29N 43°39' W 070°15'0 0.0
2017-Sep-13 12:59N 43°39' W 070°15'0 0.0
2017-Sep-12 17:56N 43°39' W 070°15'0 0.0
2017-Sep-12 17:29N 43°39' W 070°15'0 0.0
2017-Sep-12 16:59N 43°39' W 070°15'0 0.0
2017-Sep-12 16:29N 43°39' W 070°15'0 0.0
2017-Sep-12 15:59N 43°39' W 070°15'0 0.0
2017-Sep-12 15:29N 43°39' W 070°15'0 0.0
2017-Sep-12 14:59N 43°39' W 070°15'0 0.0
2017-Sep-12 14:29N 43°39' W 070°15'0 0.0
2017-Sep-12 13:59N 43°39' W 070°15'0 0.0
2017-Sep-12 13:29N 43°39' W 070°15'  
Track history (hours):
 
Tides and Currents Weather Stations Pressure Air Temp Water Temp Dewpoint Dewpoint Depression Visibility Wind Speed Wind Dir Waves Ship Positions

Harriot Lane

Last reported at 2017-Sep-22 02:00 UTC. Time now 2017-Oct-17 02:15 UTC.
Position N 42°30' W 070°39'.
Warning: this ship's position is 25 days out of date.

Date/timePositionNaut miles runAvg speedWind from/ knotsBaromVisibWave heightAir tempDewpointWater temp
2017-Sep-22 02:00N 42°30' W 070°39'612.3
2017-Sep-22 01:30N 42°34' W 070°33'714.2
2017-Sep-22 01:00N 42°39' W 070°26'613.0
2017-Sep-22 00:30N 42°46' W 070°24'713.7
2017-Sep-22 00:00N 42°53' W 070°24'713.9
2017-Sep-21 23:30N 42°60' W 070°23'713.3
2017-Sep-21 23:00N 43°06' W 070°20'713.7
2017-Sep-21 22:30N 43°12' W 070°16'913.7
2017-Sep-21 21:49N 43°21' W 070°11'513.9
2017-Sep-21 21:28N 43°25' W 070°09'  
2017-Sep-19 01:30N 42°36' W 070°27'3 6.0
2017-Sep-19 01:00N 42°34' W 070°30'4 7.1
2017-Sep-19 00:30N 42°33' W 070°35'4 8.4
2017-Sep-19 00:00N 42°31' W 070°39'4 8.3
2017-Sep-18 23:30N 42°27' W 070°43'510.2
2017-Sep-18 23:00N 42°23' W 070°47'510.0
2017-Sep-18 22:31N 42°23' W 070°54'4 7.8
2017-Sep-18 22:01N 42°20' W 070°58'0 0.2
2017-Sep-18 21:28N 42°20' W 070°58'0 0.0
2017-Sep-18 20:58N 42°20' W 070°58'0 0.0
2017-Sep-18 20:28N 42°20' W 070°58'0 0.0
2017-Sep-18 19:59N 42°20' W 070°58'0 0.0
2017-Sep-18 19:29N 42°20' W 070°58'0 0.0
2017-Sep-18 18:59N 42°20' W 070°58'0 0.0
2017-Sep-18 18:29N 42°20' W 070°58'0 0.0
2017-Sep-18 17:59N 42°20' W 070°58'0 0.0
2017-Sep-18 17:29N 42°20' W 070°58'0 0.0
2017-Sep-18 16:59N 42°20' W 070°58'0 0.0
2017-Sep-18 16:30N 42°20' W 070°58'0 0.0
2017-Sep-18 16:00N 42°20' W 070°58'0 0.0
2017-Sep-18 15:30N 42°20' W 070°58'0 0.1
2017-Sep-18 15:00N 42°20' W 070°58'0 0.0
2017-Sep-18 14:30N 42°20' W 070°58'0 0.0
2017-Sep-18 14:00N 42°20' W 070°58'1 1.3
2017-Sep-18 13:30N 42°20' W 070°57'510.0
2017-Sep-18 13:00N 42°23' W 070°51'3 6.5
2017-Sep-18 12:30N 42°23' W 070°47'3 6.5
2017-Sep-18 12:00N 42°23' W 070°43'3 6.6
2017-Sep-18 11:30N 42°22' W 070°38'3 6.5
2017-Sep-18 11:00N 42°22' W 070°34'3 5.9
2017-Sep-18 10:30N 42°22' W 070°30'3 5.4
2017-Sep-18 10:00N 42°22' W 070°26'4 7.6
2017-Sep-18 09:30N 42°21' W 070°21'4 8.4
2017-Sep-18 09:00N 42°21' W 070°15'4 0.1
2017-Sep-16 18:36N 42°18' W 070°13'1 8.9
2017-Sep-16 18:31N 42°18' W 070°14'5 9.0
2017-Sep-16 18:00N 42°18' W 070°20'5 9.3
2017-Sep-16 17:30N 42°19' W 070°26'4 8.9
2017-Sep-16 17:00N 42°19' W 070°32'5 9.1
2017-Sep-16 16:30N 42°20' W 070°38'510.3
2017-Sep-16 16:00N 42°21' W 070°45'3 6.6
2017-Sep-16 15:30N 42°23' W 070°48'2 3.1
2017-Sep-16 15:00N 42°23' W 070°46'3 6.8
2017-Sep-16 14:31N 42°23' W 070°42'4 7.0
2017-Sep-16 14:00N 42°22' W 070°37'4 8.6
2017-Sep-16 13:30N 42°22' W 070°31'3 5.3
2017-Sep-16 13:00N 42°23' W 070°28'2 3.6
2017-Sep-16 12:30N 42°23' W 070°30'1 1.5
2017-Sep-16 12:01N 42°23' W 070°31'2 4.2
2017-Sep-16 11:30N 42°22' W 070°28'1 2.9
2017-Sep-16 11:00N 42°23' W 070°26'2 3.5
2017-Sep-16 10:30N 42°23' W 070°29'1 1.6
2017-Sep-16 10:00N 42°23' W 070°30'3 6.5
2017-Sep-16 09:30N 42°22' W 070°26'  
2017-Sep-13 21:59N 43°29' W 070°05'510.3
2017-Sep-13 21:30N 43°34' W 070°09'510.8
2017-Sep-13 21:00N 43°38' W 070°13'2 3.6
2017-Sep-13 20:28N 43°39' W 070°15'0 0.0
2017-Sep-13 20:01N 43°39' W 070°15'0 0.0
2017-Sep-13 19:30N 43°39' W 070°15'0 0.0
2017-Sep-13 18:54N 43°39' W 070°15'0 0.0
2017-Sep-13 18:30N 43°39' W 070°15'0 0.0
2017-Sep-13 14:59N 43°39' W 070°15'0 0.0
2017-Sep-13 14:29N 43°39' W 070°15'0 0.0
2017-Sep-13 13:59N 43°39' W 070°15'0 0.0
2017-Sep-13 13:29N 43°39' W 070°15'0 0.0
2017-Sep-13 12:59N 43°39' W 070°15'0 0.0
2017-Sep-12 17:56N 43°39' W 070°15'0 0.0
2017-Sep-12 17:29N 43°39' W 070°15'0 0.0
2017-Sep-12 16:59N 43°39' W 070°15'0 0.0
2017-Sep-12 16:29N 43°39' W 070°15'0 0.0
2017-Sep-12 15:59N 43°39' W 070°15'0 0.0
2017-Sep-12 15:29N 43°39' W 070°15'0 0.0
2017-Sep-12 14:59N 43°39' W 070°15'0 0.0
2017-Sep-12 14:29N 43°39' W 070°15'0 0.0
2017-Sep-12 13:59N 43°39' W 070°15'0 0.0
2017-Sep-12 13:29N 43°39' W 070°15'  

Dump ship's entire track history